createdAt,value
2022-08-20T00:02:14.762Z,100276.44
2022-08-20T00:04:44.185Z,100277.66
2022-08-20T00:07:12.240Z,100273.44
2022-08-20T00:09:41.760Z,100279.19
2022-08-20T00:12:11.021Z,100265.84
2022-08-20T00:14:40.458Z,100274.78
2022-08-20T00:17:08.491Z,100269.03
2022-08-20T00:19:36.409Z,100280.91
2022-08-20T00:22:06.208Z,100283.38
2022-08-20T00:24:34.912Z,100271.19
2022-08-20T00:27:03.374Z,100280.97
2022-08-20T00:29:31.398Z,100276.22
2022-08-20T00:31:59.580Z,100264.53
2022-08-20T00:34:27.835Z,100281.03
2022-08-20T00:36:55.778Z,100281.94
2022-08-20T00:39:24.970Z,100287.25
2022-08-20T00:41:53.024Z,100278.06
2022-08-20T00:44:23.152Z,100276.59
2022-08-20T00:46:52.339Z,100271.97
2022-08-20T00:49:24.671Z,100276.56
2022-08-20T00:51:58.570Z,100273.28
2022-08-20T00:54:31.238Z,100275.88
2022-08-20T00:57:03.398Z,100269.03
2022-08-20T00:59:33.874Z,100273.47
2022-08-20T01:02:03.257Z,100275.13
2022-08-20T01:04:34.136Z,100280.63
2022-08-20T01:07:02.916Z,100265.34
2022-08-20T01:09:33.408Z,100293.44
2022-08-20T01:12:19.610Z,100286.13
2022-08-20T01:14:48.415Z,100299.94
2022-08-20T01:17:20.264Z,100292.97
2022-08-20T01:19:52.562Z,100290.97
2022-08-20T01:22:46.946Z,100301.53
2022-08-20T01:25:22.629Z,100303.78
2022-08-20T01:27:55.130Z,100311.69
2022-08-20T01:30:28.912Z,100311.47
2022-08-20T01:32:57.058Z,100306.88
2022-08-20T01:35:27.133Z,100300.50
2022-08-20T01:37:55.239Z,100305.53
2022-08-20T01:40:36.926Z,100299.97
2022-08-20T01:43:09.758Z,100309.81
2022-08-20T01:45:40.182Z,100307.81
2022-08-20T01:48:09.603Z,100318.88
2022-08-20T01:50:41.914Z,100317.66
2022-08-20T01:53:18.694Z,100299.91
2022-08-20T01:55:46.612Z,100316.00
2022-08-20T01:58:15.978Z,100289.38
2022-08-20T02:00:43.900Z,100308.28
2022-08-20T02:03:11.875Z,100328.53
2022-08-20T02:05:39.878Z,100316.19
2022-08-20T02:08:07.751Z,100317.13
2022-08-20T02:10:36.394Z,100294.19
2022-08-20T02:13:08.680Z,100335.28
2022-08-20T02:15:39.966Z,100316.84
2022-08-20T02:18:15.841Z,100328.75
2022-08-20T02:20:45.227Z,100322.47
2022-08-20T02:23:15.491Z,100299.94
2022-08-20T02:25:48.304Z,100326.94
2022-08-20T02:28:19.731Z,100331.69
2022-08-20T02:30:51.981Z,100331.47
2022-08-20T02:33:24.372Z,100327.06
2022-08-20T02:35:56.798Z,100334.47
2022-08-20T02:38:25.450Z,100327.59
2022-08-20T02:40:53.658Z,100340.59
2022-08-20T02:43:21.594Z,100343.06
2022-08-20T02:45:51.535Z,100341.94
2022-08-20T02:48:23.003Z,100332.88
2022-08-20T02:50:54.095Z,100349.44
2022-08-20T02:53:22.571Z,100352.19
2022-08-20T02:55:51.495Z,100346.44
2022-08-20T02:58:20.578Z,100347.56
2022-08-20T03:00:50.448Z,100350.03
2022-08-20T03:03:22.444Z,100351.38
2022-08-20T03:05:53.127Z,100345.56
2022-08-20T03:08:22.639Z,100348.84
2022-08-20T03:10:52.315Z,100351.31
2022-08-20T03:13:20.938Z,100348.56
2022-08-20T03:15:57.929Z,100354.44
2022-08-20T03:18:28.624Z,100326.13
2022-08-20T03:20:56.545Z,100344.81
2022-08-20T03:23:25.438Z,100340.69
2022-08-20T03:25:53.419Z,100342.28
2022-08-20T03:28:21.431Z,100339.81
2022-08-20T03:30:51.428Z,100339.03
2022-08-20T03:33:20.251Z,100341.09
2022-08-20T03:35:49.393Z,100339.56
2022-08-20T03:38:21.588Z,100350.59
2022-08-20T03:41:01.096Z,100342.31
2022-08-20T03:43:29.393Z,100341.78
2022-08-20T03:45:58.722Z,100336.03
2022-08-20T03:48:27.183Z,100330.59
2022-08-20T03:50:57.626Z,100335.88
2022-08-20T03:53:25.469Z,100326.53
2022-08-20T03:56:00.457Z,100341.44
2022-08-20T03:58:35.001Z,100347.81
2022-08-20T04:01:07.669Z,100343.66
2022-08-20T04:03:58.642Z,100338.81
2022-08-20T04:06:27.721Z,100343.94
2022-08-20T04:08:56.200Z,100338.75
2022-08-20T04:11:24.674Z,100350.38
2022-08-20T04:13:52.674Z,100351.78
2022-08-20T04:16:22.381Z,100337.25
2022-08-20T04:18:56.046Z,100348.72
2022-08-20T04:21:33.178Z,100341.47
2022-08-20T04:24:02.290Z,100348.69
2022-08-20T04:26:30.544Z,100356.50
2022-08-20T04:28:58.479Z,100337.78
2022-08-20T04:31:33.858Z,100335.53
2022-08-20T04:34:03.128Z,100346.84
2022-08-20T04:36:31.407Z,100351.25
2022-08-20T04:38:59.421Z,100349.59
2022-08-20T04:41:26.385Z,100355.38
2022-08-20T04:43:56.057Z,100351.41
2022-08-20T04:46:28.689Z,100351.94
2022-08-20T04:48:58.654Z,100356.09
2022-08-20T04:51:27.030Z,100350.63
2022-08-20T04:53:56.283Z,100351.41
2022-08-20T04:56:26.405Z,100361.13
2022-08-20T04:58:55.994Z,100368.81
2022-08-20T05:01:26.018Z,100363.28
2022-08-20T05:03:55.280Z,100364.59
2022-08-20T05:06:26.517Z,100360.16
2022-08-20T05:08:54.831Z,100362.34
2022-08-20T05:11:35.375Z,100371.69
2022-08-20T05:14:07.936Z,100380.78
2022-08-20T05:16:40.338Z,100372.72
2022-08-20T05:19:10.752Z,100382.09
2022-08-20T05:21:40.595Z,100382.25
2022-08-20T05:24:10.017Z,100372.09
2022-08-20T05:26:37.988Z,100390.19
2022-08-20T05:29:06.896Z,100387.84
2022-08-20T05:31:36.061Z,100386.19
2022-08-20T05:34:09.805Z,100399.09
2022-08-20T05:36:41.684Z,100401.94
2022-08-20T05:39:10.336Z,100404.94
2022-08-20T05:41:38.973Z,100400.22
2022-08-20T05:44:10.001Z,100401.47
2022-08-20T05:46:40.372Z,100404.38
2022-08-20T05:49:08.445Z,100403.09
2022-08-20T05:51:37.425Z,100401.63
2022-08-20T05:54:07.899Z,100415.25
2022-08-20T05:56:37.117Z,100390.31
2022-08-20T05:59:07.144Z,100415.63
2022-08-20T06:01:37.978Z,100396.41
2022-08-20T06:04:24.105Z,100408.50
2022-08-20T06:06:53.051Z,100407.16
2022-08-20T06:09:31.030Z,100412.59
2022-08-20T06:12:02.362Z,100413.78
2022-08-20T06:14:31.139Z,100422.44
2022-08-20T06:17:04.875Z,100417.28
2022-08-20T06:19:33.927Z,100431.94
2022-08-20T06:22:02.004Z,100403.59
2022-08-20T06:24:31.297Z,100420.06
2022-08-20T06:27:00.479Z,100420.81
2022-08-20T06:29:29.606Z,100424.63
2022-08-20T06:31:58.084Z,100428.44
2022-08-20T06:34:28.248Z,100432.03
2022-08-20T06:36:59.376Z,100433.84
2022-08-20T06:39:29.963Z,100428.28
2022-08-20T06:41:59.550Z,100431.25
2022-08-20T06:44:28.429Z,100436.66
2022-08-20T06:47:00.873Z,100438.88
2022-08-20T06:49:28.927Z,100445.09
2022-08-20T06:52:03.834Z,100439.44
2022-08-20T06:54:34.299Z,100430.44
2022-08-20T06:57:04.502Z,100431.72
2022-08-20T06:59:32.913Z,100432.59
2022-08-20T07:02:00.973Z,100422.91
2022-08-20T07:04:29.130Z,100431.03
2022-08-20T07:06:57.714Z,100406.47
2022-08-20T07:09:27.383Z,100430.72
2022-08-20T07:11:56.155Z,100433.97
2022-08-20T07:14:26.059Z,100434.03
2022-08-20T07:16:53.997Z,100429.06
2022-08-20T07:19:22.407Z,100426.38
2022-08-20T07:21:50.682Z,100417.38
2022-08-20T07:24:18.542Z,100398.81
2022-08-20T07:26:46.586Z,100435.28
2022-08-20T07:29:14.489Z,100435.16
2022-08-20T07:32:01.510Z,100413.81
2022-08-20T07:34:31.472Z,100430.31
2022-08-20T07:37:00.808Z,100431.78
2022-08-20T07:39:30.022Z,100430.44
2022-08-20T07:42:03.940Z,100410.66
2022-08-20T07:44:31.998Z,100426.97
2022-08-20T07:47:01.319Z,100437.47
2022-08-20T07:49:30.906Z,100432.31
2022-08-20T07:51:58.839Z,100441.91
2022-08-20T07:54:27.977Z,100446.75
2022-08-20T07:57:02.530Z,100438.38
2022-08-20T07:59:31.541Z,100456.03
2022-08-20T08:02:00.834Z,100449.75
2022-08-20T08:04:29.453Z,100444.13
2022-08-20T08:07:00.094Z,100459.00
2022-08-20T08:09:29.337Z,100453.34
2022-08-20T08:12:00.800Z,100460.47
2022-08-20T08:14:32.434Z,100456.56
2022-08-20T08:17:05.459Z,100434.97
2022-08-20T08:19:42.686Z,100438.25
2022-08-20T08:22:13.265Z,100443.22
2022-08-20T08:24:43.283Z,100440.66
2022-08-20T08:27:25.468Z,100438.53
2022-08-20T08:29:54.550Z,100433.34
2022-08-20T08:32:24.645Z,100426.63
2022-08-20T08:34:52.840Z,100428.38
2022-08-20T08:37:21.131Z,100437.84
2022-08-20T08:39:49.259Z,100433.97
2022-08-20T08:42:27.144Z,100425.66
2022-08-20T08:44:55.874Z,100423.25
2022-08-20T08:47:29.367Z,100436.63
2022-08-20T08:49:58.534Z,100436.53
2022-08-20T08:52:31.528Z,100420.91
2022-08-20T08:55:03.977Z,100440.78
2022-08-20T08:57:32.308Z,100439.53
2022-08-20T09:00:06.148Z,100418.13
2022-08-20T09:02:38.788Z,100419.59
2022-08-20T09:05:19.783Z,100431.88
2022-08-20T09:07:51.333Z,100436.34
2022-08-20T09:10:23.201Z,100436.34
2022-08-20T09:12:52.232Z,100428.44
2022-08-20T09:15:21.183Z,100438.03
2022-08-20T09:17:50.782Z,100434.53
2022-08-20T09:20:19.357Z,100424.16
2022-08-20T09:22:47.376Z,100438.72
2022-08-20T09:25:17.243Z,100431.59
2022-08-20T09:27:45.332Z,100415.53
2022-08-20T09:30:17.089Z,100427.66
2022-08-20T09:32:46.611Z,100422.84
2022-08-20T09:35:15.949Z,100431.41
2022-08-20T09:37:43.883Z,100436.16
2022-08-20T09:40:13.350Z,100434.94
2022-08-20T09:42:41.960Z,100434.00
2022-08-20T09:45:11.833Z,100423.50
2022-08-20T09:47:54.757Z,100416.13
2022-08-20T09:50:26.177Z,100423.22
2022-08-20T09:52:56.447Z,100424.31
2022-08-20T09:55:32.695Z,100422.59
2022-08-20T09:58:03.263Z,100409.44
2022-08-20T10:00:31.426Z,100411.16
2022-08-20T10:03:00.794Z,100406.34
2022-08-20T10:05:30.511Z,100403.47
2022-08-20T10:07:58.684Z,100389.72
2022-08-20T10:10:27.261Z,100405.81
2022-08-20T10:12:55.277Z,100400.06
2022-08-20T10:15:23.238Z,100408.25
2022-08-20T10:17:51.125Z,100410.66
2022-08-20T10:20:19.692Z,100407.78
2022-08-20T10:22:48.917Z,100408.69
2022-08-20T10:25:17.784Z,100402.13
2022-08-20T10:27:45.695Z,100404.31
2022-08-20T10:30:14.228Z,100409.78
2022-08-20T10:32:42.783Z,100413.25
2022-08-20T10:35:10.702Z,100409.97
2022-08-20T10:37:38.635Z,100408.69
2022-08-20T10:40:09.724Z,100396.97
2022-08-20T10:42:42.340Z,100392.84
2022-08-20T10:45:11.477Z,100400.41
2022-08-20T10:47:39.718Z,100394.03
2022-08-20T10:50:11.586Z,100387.84
2022-08-20T10:52:39.449Z,100381.84
2022-08-20T10:55:10.080Z,100382.59
2022-08-20T10:57:41.795Z,100388.41
2022-08-20T11:00:13.796Z,100393.53
2022-08-20T11:02:42.006Z,100387.69
2022-08-20T11:05:10.486Z,100390.34
2022-08-20T11:07:50.797Z,100383.38
2022-08-20T11:10:26.912Z,100389.13
2022-08-20T11:12:55.271Z,100386.31
2022-08-20T11:15:23.598Z,100384.69
2022-08-20T11:17:51.420Z,100388.97
2022-08-20T11:20:21.746Z,100376.31
2022-08-20T11:22:49.596Z,100377.34
2022-08-20T11:25:17.994Z,100381.03
2022-08-20T11:27:50.021Z,100379.78
2022-08-20T11:30:20.999Z,100375.03
2022-08-20T11:32:49.347Z,100363.53
2022-08-20T11:38:05.945Z,100366.16
2022-08-20T11:40:34.538Z,100376.78
2022-08-20T11:43:14.661Z,100371.47
2022-08-20T11:45:43.477Z,100368.44
2022-08-20T11:48:11.296Z,100361.44
2022-08-20T11:50:39.183Z,100365.19
2022-08-20T11:53:07.551Z,100355.94
2022-08-20T11:55:36.698Z,100349.88
2022-08-20T11:58:06.228Z,100347.16
2022-08-20T12:00:34.520Z,100345.44
2022-08-20T12:03:04.988Z,100351.22
2022-08-20T12:05:33.432Z,100351.84
2022-08-20T12:08:02.176Z,100353.59
2022-08-20T12:10:30.625Z,100339.59
2022-08-20T12:12:58.953Z,100329.81
2022-08-20T12:15:28.504Z,100345.00
2022-08-20T12:17:56.599Z,100335.28
2022-08-20T12:20:25.045Z,100322.38
2022-08-20T12:22:53.933Z,100335.28
2022-08-20T12:25:21.922Z,100343.78
2022-08-20T12:27:49.813Z,100341.38
2022-08-20T12:30:20.718Z,100339.63
2022-08-20T12:32:50.335Z,100340.47
2022-08-20T12:35:19.857Z,100333.78
2022-08-20T12:37:48.030Z,100331.81
2022-08-20T12:40:18.075Z,100323.91
2022-08-20T12:42:58.615Z,100318.00
2022-08-20T12:45:26.631Z,100311.75
2022-08-20T12:48:02.372Z,100318.59
2022-08-20T12:50:31.858Z,100314.13
2022-08-20T12:53:00.545Z,100297.66
2022-08-20T12:55:28.417Z,100310.00
2022-08-20T12:57:59.304Z,100305.94
2022-08-20T13:00:30.169Z,100312.72
2022-08-20T13:03:02.383Z,100308.84
2022-08-20T13:05:30.991Z,100309.28
2022-08-20T13:07:59.764Z,100301.75
2022-08-20T13:10:30.943Z,100304.41
2022-08-20T13:12:59.104Z,100302.19
2022-08-20T13:15:27.392Z,100303.06
2022-08-20T13:17:57.041Z,100286.47
2022-08-20T13:20:31.625Z,100261.75
2022-08-20T13:23:02.780Z,100294.97
2022-08-20T13:25:30.773Z,100292.31
2022-08-20T13:28:00.797Z,100303.03
2022-08-20T13:30:29.150Z,100304.88
2022-08-20T13:32:57.211Z,100300.72
2022-08-20T13:35:26.559Z,100279.13
2022-08-20T13:37:54.490Z,100281.22
2022-08-20T13:40:22.479Z,100287.97
2022-08-20T13:42:50.455Z,100284.47
2022-08-20T13:45:18.399Z,100282.47
2022-08-20T13:47:47.178Z,100287.03
2022-08-20T13:50:18.186Z,100275.56
2022-08-20T13:52:48.524Z,100286.63
2022-08-20T13:55:20.230Z,100282.34
2022-08-20T13:57:49.992Z,100275.41
2022-08-20T14:00:21.367Z,100268.09
2022-08-20T14:02:59.088Z,100265.84
2022-08-20T14:05:27.068Z,100261.34
2022-08-20T14:07:56.600Z,100258.50
2022-08-20T14:10:31.309Z,100259.97
2022-08-20T14:13:00.241Z,100255.09
2022-08-20T14:15:28.355Z,100246.44
2022-08-20T14:17:58.799Z,100249.81
2022-08-20T14:20:31.991Z,100255.50
2022-08-20T14:23:03.079Z,100261.00
2022-08-20T14:25:32.734Z,100256.59
2022-08-20T14:28:09.583Z,100260.25
2022-08-20T14:30:37.624Z,100249.06
2022-08-20T14:33:05.504Z,100254.44
2022-08-20T14:35:33.450Z,100264.34
2022-08-20T14:38:05.361Z,100259.69
2022-08-20T14:40:34.542Z,100256.03
2022-08-20T14:43:03.503Z,100260.69
2022-08-20T14:45:31.912Z,100273.84
2022-08-20T14:47:59.980Z,100272.97
2022-08-20T14:50:30.700Z,100276.94
2022-08-20T14:52:59.176Z,100274.28
2022-08-20T14:55:30.883Z,100282.91
2022-08-20T14:57:59.310Z,100281.31
2022-08-20T15:00:29.976Z,100271.03
2022-08-20T15:02:58.481Z,100268.38
2022-08-20T15:05:26.852Z,100257.94
2022-08-20T15:07:55.007Z,100268.91
2022-08-20T15:10:24.961Z,100251.19
2022-08-20T15:12:55.176Z,100260.69
2022-08-20T15:15:23.487Z,100262.56
2022-08-20T15:17:53.494Z,100262.81
2022-08-20T15:20:25.729Z,100258.63
2022-08-20T15:22:54.297Z,100253.03
2022-08-20T15:25:24.438Z,100251.31
2022-08-20T15:27:52.660Z,100248.91
2022-08-20T15:30:24.069Z,100245.44
2022-08-20T15:32:54.986Z,100244.66
2022-08-20T15:35:24.427Z,100246.56
2022-08-20T15:37:54.829Z,100247.63
2022-08-20T15:40:28.143Z,100268.22
2022-08-20T15:42:56.565Z,100269.94
2022-08-20T15:45:26.207Z,100268.72
2022-08-20T15:47:57.218Z,100267.22
2022-08-20T15:50:51.554Z,100270.31
2022-08-20T15:53:27.626Z,100265.06
2022-08-20T15:56:03.359Z,100283.28
2022-08-20T15:58:38.587Z,100278.19
2022-08-20T16:01:25.333Z,100270.59
2022-08-20T16:04:28.025Z,100275.25
2022-08-20T16:07:01.799Z,100288.47
2022-08-20T16:09:45.624Z,100290.81
2022-08-20T16:12:18.984Z,100284.66
2022-08-20T16:14:49.917Z,100299.38
2022-08-20T16:17:26.096Z,100282.31
2022-08-20T16:20:01.906Z,100288.16
2022-08-20T16:22:32.288Z,100305.19
2022-08-20T16:25:00.348Z,100305.06
2022-08-20T16:27:36.948Z,100313.25
2022-08-20T16:30:09.480Z,100296.56
2022-08-20T16:32:41.985Z,100317.09
2022-08-20T16:35:29.870Z,100318.41
2022-08-20T16:38:04.773Z,100321.88
2022-08-20T16:40:39.925Z,100325.00
2022-08-20T16:43:11.544Z,100328.00
2022-08-20T16:45:51.010Z,100330.09
2022-08-20T16:48:21.312Z,100335.53
2022-08-20T16:50:58.106Z,100334.19
2022-08-20T16:53:27.280Z,100353.06
2022-08-20T16:55:57.303Z,100338.44
2022-08-20T16:58:27.241Z,100337.78
2022-08-20T17:01:11.323Z,100341.41
2022-08-20T17:03:50.802Z,100341.06
2022-08-20T17:06:28.625Z,100361.72
2022-08-20T17:08:56.943Z,100353.50
2022-08-20T17:11:31.015Z,100354.91
2022-08-20T17:14:11.719Z,100345.91
2022-08-20T17:16:46.374Z,100340.44
2022-08-20T17:19:28.603Z,100364.97
2022-08-20T17:21:57.463Z,100367.56
2022-08-20T17:24:27.762Z,100374.44
2022-08-20T17:27:01.422Z,100364.56
2022-08-20T17:29:31.399Z,100377.50
2022-08-20T17:32:01.443Z,100372.38
2022-08-20T17:34:32.605Z,100368.06
2022-08-20T17:37:06.250Z,100375.56
2022-08-20T17:39:34.520Z,100387.31
2022-08-20T17:42:08.075Z,100388.88
2022-08-20T17:44:40.348Z,100389.78
2022-08-20T17:47:13.798Z,100397.66
2022-08-20T17:50:02.319Z,100390.03
2022-08-20T17:52:38.774Z,100386.63
2022-08-20T17:55:09.333Z,100381.81
2022-08-20T17:57:41.235Z,100398.59
2022-08-20T18:00:14.277Z,100407.69
2022-08-20T18:02:42.462Z,100403.69
2022-08-20T18:05:17.061Z,100407.09
2022-08-20T18:08:06.963Z,100424.69
2022-08-20T18:10:43.494Z,100424.91
2022-08-20T18:13:19.170Z,100429.66
2022-08-20T18:15:51.532Z,100438.91
2022-08-20T18:18:32.347Z,100434.34
2022-08-20T18:21:21.701Z,100432.72
2022-08-20T18:23:57.185Z,100433.13
2022-08-20T18:26:29.421Z,100437.56
2022-08-20T18:29:03.723Z,100437.44
2022-08-20T18:31:35.650Z,100443.59
2022-08-20T18:34:11.968Z,100454.34
2022-08-20T18:36:42.660Z,100450.22
2022-08-20T18:39:24.742Z,100458.06
2022-08-20T18:41:58.742Z,100456.75
2022-08-20T18:44:37.213Z,100460.00
2022-08-20T18:47:08.027Z,100466.72
2022-08-20T18:49:38.254Z,100460.75
2022-08-20T18:52:13.207Z,100466.69
2022-08-20T18:54:43.697Z,100480.28
2022-08-20T18:57:21.081Z,100481.25
2022-08-20T18:59:53.533Z,100483.09
2022-08-20T19:02:29.206Z,100479.44
2022-08-20T19:05:02.525Z,100475.69
2022-08-20T19:07:48.089Z,100488.03
2022-08-20T19:10:39.576Z,100491.28
2022-08-20T19:13:20.419Z,100494.69
2022-08-20T19:15:51.792Z,100503.69
2022-08-20T19:18:25.869Z,100490.75
2022-08-20T19:20:57.364Z,100497.38
2022-08-20T19:23:29.877Z,100494.06
2022-08-20T19:26:00.886Z,100498.28
2022-08-20T19:28:32.778Z,100502.44
2022-08-20T19:31:11.121Z,100490.47
2022-08-20T19:33:44.153Z,100506.47
2022-08-20T19:36:15.500Z,100494.94
2022-08-20T19:38:50.752Z,100499.66
2022-08-20T19:41:28.153Z,100503.81
2022-08-20T19:44:00.406Z,100506.19
2022-08-20T19:46:32.071Z,100501.44
2022-08-20T19:49:18.095Z,100512.56
2022-08-20T19:51:56.591Z,100502.06
2022-08-20T19:54:28.162Z,100510.66
2022-08-20T19:56:58.333Z,100508.22
2022-08-20T19:59:26.760Z,100508.56
2022-08-20T20:02:00.000Z,100513.00
2022-08-20T20:04:30.294Z,100509.53
2022-08-20T20:06:59.091Z,100511.22
2022-08-20T20:09:30.513Z,100510.03
2022-08-20T20:12:02.593Z,100509.28
2022-08-20T20:14:33.470Z,100498.28
2022-08-20T20:17:05.128Z,100504.59
2022-08-20T20:19:33.164Z,100502.38
2022-08-20T20:22:19.023Z,100511.47
2022-08-20T20:25:03.649Z,100512.66
2022-08-20T20:27:33.150Z,100509.91
2022-08-20T20:30:03.216Z,100511.09
2022-08-20T20:32:33.892Z,100502.31
2022-08-20T20:35:06.495Z,100512.22
2022-08-20T20:37:48.807Z,100507.00
2022-08-20T20:40:25.843Z,100505.34
2022-08-20T20:43:04.309Z,100490.50
2022-08-20T20:45:36.160Z,100506.53
2022-08-20T20:48:16.028Z,100506.25
2022-08-20T20:50:44.063Z,100501.84
2022-08-20T20:53:13.128Z,100490.28
2022-08-20T20:55:53.747Z,100498.84
2022-08-20T20:58:21.703Z,100509.00
2022-08-20T21:00:51.553Z,100503.22
2022-08-20T21:03:19.489Z,100502.19
2022-08-20T21:05:47.954Z,100509.94
2022-08-20T21:08:16.008Z,100498.94
2022-08-20T21:10:45.267Z,100507.72
2022-08-20T21:13:13.344Z,100502.28
2022-08-20T21:15:41.322Z,100511.97
2022-08-20T21:18:10.144Z,100502.03
2022-08-20T21:20:38.213Z,100500.66
2022-08-20T21:23:06.943Z,100504.84
2022-08-20T21:25:36.210Z,100517.25
2022-08-20T21:28:06.133Z,100510.34
2022-08-20T21:30:34.237Z,100506.50
2022-08-20T21:33:02.188Z,100513.38
2022-08-20T21:35:30.085Z,100515.03
2022-08-20T21:37:57.951Z,100510.94
2022-08-20T21:40:28.419Z,100514.88
2022-08-20T21:42:57.078Z,100531.44
2022-08-20T21:45:28.319Z,100532.84
2022-08-20T21:47:57.094Z,100525.38
2022-08-20T21:50:25.755Z,100532.84
2022-08-20T21:52:59.910Z,100533.69
2022-08-20T21:55:30.101Z,100535.59
2022-08-20T21:57:59.171Z,100533.94
2022-08-20T22:00:55.500Z,100525.13
2022-08-20T22:03:25.328Z,100519.63
2022-08-20T22:05:56.694Z,100535.59
2022-08-20T22:08:28.541Z,100536.41
2022-08-20T22:10:57.876Z,100544.41
2022-08-20T22:13:28.235Z,100546.03
2022-08-20T22:15:57.480Z,100538.91
2022-08-20T22:18:25.924Z,100534.19
2022-08-20T22:20:54.047Z,100540.81
2022-08-20T22:23:22.313Z,100541.38
2022-08-20T22:25:50.568Z,100530.34
2022-08-20T22:28:18.968Z,100535.84
2022-08-20T22:30:47.081Z,100534.22
2022-08-20T22:33:22.107Z,100538.63
2022-08-20T22:35:52.290Z,100532.81
2022-08-20T22:38:20.472Z,100529.25
2022-08-20T22:40:48.732Z,100537.75
2022-08-20T22:43:17.140Z,100523.16
2022-08-20T22:45:48.284Z,100525.91
2022-08-20T22:48:19.531Z,100527.03
2022-08-20T22:50:48.271Z,100530.31
2022-08-20T22:53:18.375Z,100521.81
2022-08-20T22:55:46.614Z,100539.97
2022-08-20T22:58:15.703Z,100533.63
2022-08-20T23:00:45.304Z,100536.66
2022-08-20T23:03:14.920Z,100536.09
2022-08-20T23:05:48.570Z,100533.63
2022-08-20T23:08:16.965Z,100541.06
2022-08-20T23:10:45.579Z,100537.22
2022-08-20T23:13:13.720Z,100535.00
2022-08-20T23:15:45.634Z,100535.00
2022-08-20T23:18:15.850Z,100541.09
2022-08-20T23:20:47.219Z,100542.75
2022-08-20T23:23:16.818Z,100535.28
2022-08-20T23:25:44.725Z,100539.44
2022-08-20T23:28:12.908Z,100525.34
2022-08-20T23:30:41.006Z,100531.44
2022-08-20T23:33:09.174Z,100535.28
2022-08-20T23:35:40.502Z,100533.06
2022-08-20T23:38:09.085Z,100523.69
2022-08-20T23:40:38.469Z,100524.50
2022-08-20T23:43:07.562Z,100531.63
2022-08-20T23:45:36.099Z,100530.31
2022-08-20T23:48:09.136Z,100537.97
2022-08-20T23:50:39.266Z,100534.97
2022-08-20T23:53:07.234Z,100519.56
2022-08-20T23:55:35.508Z,100525.31
2022-08-20T23:58:04.730Z,100525.06
